Time;durP1;ratioP1;P1;durP2;ratioP2;P2;SDS_P1;SDS_P2;PMS_P1;PMS_P2;Temp;Humidity;BMP_temperature;BMP_pressure;BME280_temperature;BME280_humidity;BME280_pressure;Samples;Min_cycle;Max_cycle;Signal;HPM_P1;HPM_P2
2022/11/23 00:02:05;;;;;;;5.10;1.80;;;;;;;5.57;86.12;99227.86;105711;1286;58797;-79
2022/11/23 00:04:31;;;;;;;5.20;2.10;;;;;;;5.59;86.37;99227.47;105722;1294;59061;-79
2022/11/23 00:06:58;;;;;;;5.10;2.00;;;;;;;5.61;86.14;99224.60;105608;1294;59190;-80
2022/11/23 00:09:24;;;;;;;4.00;1.70;;;;;;;5.61;86.22;99221.91;105701;1293;59325;-80
2022/11/23 00:11:51;;;;;;;5.20;2.00;;;;;;;5.60;86.17;99223.23;105716;1294;59153;-79
2022/11/23 00:14:20;;;;;;;5.50;2.00;;;;;;;5.60;86.23;99224.87;105578;1293;58992;-79
2022/11/23 00:16:46;;;;;;;5.50;2.00;;;;;;;5.58;86.17;99223.84;105567;1293;72113;-80
2022/11/23 00:19:13;;;;;;;5.50;2.10;;;;;;;5.55;86.38;99226.03;105503;1294;59032;-79
2022/11/23 00:21:39;;;;;;;6.20;1.90;;;;;;;5.51;86.32;99225.14;105617;1294;59415;-79
2022/11/23 00:24:06;;;;;;;4.70;1.90;;;;;;;5.47;86.41;99223.04;105589;1294;59070;-80
2022/11/23 00:26:32;;;;;;;5.70;2.20;;;;;;;5.41;86.26;99225.44;105531;1294;58900;-79
2022/11/23 00:28:59;;;;;;;5.10;2.00;;;;;;;5.36;86.55;99225.05;105600;1293;58863;-78
2022/11/23 00:31:25;;;;;;;6.60;2.10;;;;;;;5.30;86.52;99228.69;105610;1286;59305;-78
2022/11/23 00:33:53;;;;;;;5.70;2.10;;;;;;;5.25;86.71;99231.22;105624;1287;59121;-79
2022/11/23 00:36:21;;;;;;;4.90;1.90;;;;;;;5.19;87.03;99231.89;105466;1293;73844;-79
2022/11/23 00:38:48;;;;;;;5.90;2.10;;;;;;;5.15;87.44;99240.89;105507;1295;71435;-79
2022/11/23 00:41:17;;;;;;;6.60;2.00;;;;;;;5.13;87.73;99240.43;105491;1295;72439;-80
2022/11/23 00:43:44;;;;;;;4.60;1.90;;;;;;;5.11;87.72;99229.98;105542;1290;59353;-79
2022/11/23 00:46:21;;;;;;;4.70;1.80;;;;;;;5.08;87.65;99231.14;105560;1290;60271;-80
2022/11/23 00:48:50;;;;;;;5.50;2.10;;;;;;;5.05;87.81;99232.45;105557;1294;74257;-79
2022/11/23 00:51:19;;;;;;;7.90;2.30;;;;;;;5.00;87.92;99233.98;105554;1294;69563;-79
2022/11/23 00:53:46;;;;;;;6.40;1.90;;;;;;;4.95;87.99;99235.14;105464;1287;71186;-79
2022/11/23 00:56:12;;;;;;;6.20;2.10;;;;;;;4.90;88.26;99231.14;105507;1294;60109;-80
2022/11/23 00:58:39;;;;;;;6.10;2.00;;;;;;;4.85;88.47;99228.58;105626;1290;59063;-79
2022/11/23 01:01:11;;;;;;;4.30;2.10;;;;;;;4.81;88.87;99226.39;105516;1293;59534;-79
2022/11/23 01:03:41;;;;;;;4.00;1.90;;;;;;;4.77;88.79;99226.10;105471;1298;70108;-79
2022/11/23 01:06:10;;;;;;;4.80;2.20;;;;;;;4.75;89.03;99226.34;105570;1291;72557;-79
2022/11/23 01:08:37;;;;;;;4.80;2.20;;;;;;;4.73;89.05;99225.59;105381;1298;59703;-79
2022/11/23 01:11:08;;;;;;;5.60;2.10;;;;;;;4.68;89.21;99223.64;105467;1296;59572;-79
2022/11/23 01:13:43;;;;;;;4.30;2.10;;;;;;;4.64;89.39;99222.00;105529;1294;73360;-79
2022/11/23 01:16:18;;;;;;;6.00;2.30;;;;;;;4.60;89.45;99221.42;105473;1294;69769;-79
2022/11/23 01:18:54;;;;;;;7.10;2.20;;;;;;;4.55;89.69;99225.78;105573;1287;72987;-79
2022/11/23 01:21:21;;;;;;;7.30;2.20;;;;;;;4.51;89.51;99227.33;105529;1289;61309;-79
2022/11/23 01:23:48;;;;;;;7.30;2.70;;;;;;;4.47;89.61;99225.99;105366;1290;60410;-79
2022/11/23 01:26:20;;;;;;;5.80;2.50;;;;;;;4.43;89.52;99225.76;105539;1287;73452;-79
2022/11/23 01:28:50;;;;;;;4.80;2.30;;;;;;;4.39;89.73;99227.88;105564;1287;68755;-79
2022/11/23 01:31:19;;;;;;;7.00;2.40;;;;;;;4.36;90.22;99228.64;105360;1294;70383;-79
2022/11/23 01:33:46;;;;;;;7.10;2.80;;;;;;;4.35;90.41;99224.71;105426;1295;59104;-79
2022/11/23 01:36:15;;;;;;;3.90;2.00;;;;;;;4.34;90.48;99227.80;105487;1295;59797;-79
2022/11/23 01:38:43;;;;;;;9.20;2.40;;;;;;;4.34;90.67;99225.86;105493;1287;74613;-79
2022/11/23 01:41:15;;;;;;;4.70;2.40;;;;;;;4.35;91.01;99230.98;105549;1294;71095;-79
2022/11/23 01:43:43;;;;;;;6.30;2.20;;;;;;;4.36;91.19;99234.17;105458;1288;72727;-79
2022/11/23 01:46:10;;;;;;;5.90;2.30;;;;;;;4.38;91.16;99237.17;105475;1295;59902;-79
2022/11/23 01:49:02;;;;;;;3.90;2.30;;;;;;;4.38;91.35;99232.27;105542;1288;59304;-79
2022/11/23 01:51:34;;;;;;;5.00;2.20;;;;;;;4.40;91.33;99235.52;105501;1295;73935;-79
2022/11/23 01:54:24;;;;;;;3.10;2.00;;;;;;;4.39;91.82;99234.00;105529;1287;69945;-79
2022/11/23 01:57:06;;;;;;;5.30;2.10;;;;;;;4.41;91.85;99237.18;105573;1287;72226;-79
2022/11/23 01:59:35;;;;;;;5.00;1.90;;;;;;;4.41;91.73;99234.28;105492;1290;59830;-80
2022/11/23 02:02:03;;;;;;;5.90;2.30;;;;;;;4.41;91.77;99235.60;105647;1287;59608;-79
2022/11/23 02:04:35;;;;;;;5.10;1.90;;;;;;;4.41;91.99;99237.14;105438;1297;74771;-79
2022/11/23 02:07:02;;;;;;;4.20;2.30;;;;;;;4.43;92.02;99234.48;105545;1294;71014;-79
2022/11/23 02:09:36;;;;;;;5.80;2.20;;;;;;;4.45;92.24;99239.61;105489;1301;70685;-79
2022/11/23 02:12:05;;;;;;;6.30;2.20;;;;;;;4.50;92.31;99241.08;105508;1285;59428;-79
2022/11/23 02:14:32;;;;;;;5.20;2.60;;;;;;;4.53;92.27;99242.14;105580;1291;58988;-79
2022/11/23 02:16:58;;;;;;;4.70;2.10;;;;;;;4.56;91.94;99246.56;105560;1295;73082;-80
2022/11/23 02:19:37;;;;;;;4.30;1.80;;;;;;;4.57;91.85;99248.13;105545;1289;58894;-79
2022/11/23 02:22:10;;;;;;;4.10;1.90;;;;;;;4.58;91.99;99244.88;105629;1290;72701;-79
2022/11/23 02:24:47;;;;;;;5.40;1.80;;;;;;;4.59;91.94;99243.70;105556;1294;61420;-79
2022/11/23 02:27:16;;;;;;;5.80;2.10;;;;;;;4.60;92.31;99242.86;105537;1298;59047;-79
2022/11/23 02:29:43;;;;;;;4.30;1.80;;;;;;;4.63;92.61;99243.94;105475;1295;74538;-79
2022/11/23 02:32:16;;;;;;;4.90;2.00;;;;;;;4.66;92.81;99246.41;105605;1298;72684;-79
2022/11/23 02:34:43;;;;;;;6.20;2.00;;;;;;;4.72;92.91;99248.77;105563;1295;72663;-79
2022/11/23 02:37:09;;;;;;;6.10;2.10;;;;;;;4.77;93.02;99251.38;105547;1291;59587;-79
2022/11/23 02:39:51;;;;;;;5.20;2.00;;;;;;;4.81;92.91;99248.80;105511;1294;59442;-78
2022/11/23 02:42:17;;;;;;;4.40;2.10;;;;;;;4.87;92.90;99246.16;105485;1297;72313;-79
2022/11/23 02:45:06;;;;;;;5.60;1.80;;;;;;;4.94;92.86;99247.73;105522;1295;69627;-79
2022/11/23 02:47:33;;;;;;;5.30;1.80;;;;;;;5.01;92.59;99241.34;105606;1291;71382;-79
2022/11/23 02:49:59;;;;;;;6.20;1.80;;;;;;;5.06;92.49;99245.25;105466;1287;59286;-79
2022/11/23 02:52:26;;;;;;;4.90;2.00;;;;;;;5.10;92.33;99243.23;105612;1289;59172;-79
2022/11/23 02:54:52;;;;;;;5.40;1.80;;;;;;;5.15;92.24;99243.39;105495;1295;58959;-78
2022/11/23 02:57:19;;;;;;;4.80;2.00;;;;;;;5.18;92.19;99244.21;105557;1294;59401;-79
2022/11/23 02:59:48;;;;;;;4.10;1.70;;;;;;;5.23;91.98;99243.70;105641;1293;73637;-79
2022/11/23 03:02:14;;;;;;;6.10;1.70;;;;;;;5.25;91.81;99243.93;105618;1291;61117;-79
2022/11/23 03:04:41;;;;;;;3.80;1.50;;;;;;;5.27;91.76;99242.00;105552;1294;59102;-79
2022/11/23 03:07:07;;;;;;;3.90;1.70;;;;;;;5.27;91.67;99241.91;105497;1291;59367;-79
2022/11/23 03:09:34;;;;;;;5.00;2.00;;;;;;;5.29;91.68;99242.94;105473;1293;59044;-79
2022/11/23 03:12:13;;;;;;;5.10;1.90;;;;;;;5.30;91.92;99248.23;105470;1293;58809;-79
2022/11/23 03:14:42;;;;;;;2.90;1.50;;;;;;;5.35;92.06;99241.86;105521;1290;60940;-79
2022/11/23 03:17:11;;;;;;;4.50;1.80;;;;;;;5.37;91.78;99243.67;105562;1284;59018;-79
2022/11/23 03:19:38;;;;;;;6.00;2.00;;;;;;;5.40;91.94;99242.92;105507;1287;74500;-79
2022/11/23 03:22:04;;;;;;;6.20;1.80;;;;;;;5.43;91.94;99242.73;105529;1294;69648;-79
2022/11/23 03:24:31;;;;;;;3.90;1.60;;;;;;;5.48;91.73;99241.36;105511;1294;72166;-79
2022/11/23 03:26:57;;;;;;;4.70;1.50;;;;;;;5.52;91.69;99239.84;105488;1293;59274;-79
2022/11/23 03:29:25;;;;;;;4.20;1.90;;;;;;;5.57;91.53;99238.54;105597;1290;58912;-79
2022/11/23 03:31:52;;;;;;;5.40;2.00;;;;;;;5.62;91.50;99242.84;105552;1288;74819;-79
2022/11/23 03:34:19;;;;;;;5.60;1.60;;;;;;;5.67;91.33;99244.20;105408;1282;69907;-79
2022/11/23 03:36:47;;;;;;;4.40;1.60;;;;;;;5.72;91.28;99244.31;105529;1293;72873;-79
2022/11/23 03:39:16;;;;;;;4.50;1.80;;;;;;;5.78;91.10;99244.89;105618;1279;59000;-79
2022/11/23 03:41:42;;;;;;;6.00;1.70;;;;;;;5.83;91.02;99243.63;105537;1288;59506;-79
2022/11/23 03:44:09;;;;;;;5.20;1.60;;;;;;;5.89;91.01;99242.59;105476;1295;59038;-79
2022/11/23 03:46:35;;;;;;;4.30;1.70;;;;;;;5.92;90.71;99241.42;105655;1293;58277;-79
2022/11/23 03:49:02;;;;;;;4.40;1.40;;;;;;;5.97;90.86;99239.69;105549;1294;58935;-79
2022/11/23 03:51:29;;;;;;;4.40;1.70;;;;;;;6.02;90.61;99239.64;105461;1293;59998;-79
2022/11/23 03:53:57;;;;;;;3.90;1.40;;;;;;;6.05;90.30;99238.39;105535;1293;59282;-79
2022/11/23 03:56:29;;;;;;;4.10;1.40;;;;;;;6.09;90.17;99242.11;105508;1294;73609;-79
2022/11/23 03:58:56;;;;;;;4.70;1.70;;;;;;;6.13;90.17;99242.23;105522;1293;71038;-79
2022/11/23 04:01:22;;;;;;;6.30;1.80;;;;;;;6.15;89.92;99240.34;105515;1295;59396;-79
2022/11/23 04:03:48;;;;;;;4.40;1.60;;;;;;;6.17;89.77;99237.56;105528;1294;59383;-79
2022/11/23 04:06:16;;;;;;;5.40;1.80;;;;;;;6.17;89.76;99240.86;105801;1291;59464;-79
2022/11/23 04:08:44;;;;;;;7.70;1.80;;;;;;;6.16;89.55;99238.30;105723;1290;73996;-79
2022/11/23 04:11:10;;;;;;;5.00;1.70;;;;;;;6.14;89.34;99237.45;105803;1293;69844;-79
2022/11/23 04:13:39;;;;;;;4.30;1.50;;;;;;;6.12;89.30;99243.47;105663;1293;71613;-79
2022/11/23 04:16:06;;;;;;;5.90;1.70;;;;;;;6.09;89.49;99242.26;105560;1296;59799;-79
2022/11/23 04:18:32;;;;;;;5.10;1.70;;;;;;;6.06;89.50;99239.63;105638;1293;59482;-79
2022/11/23 04:20:59;;;;;;;7.70;1.90;;;;;;;6.03;89.49;99236.70;105559;1294;59578;-79
2022/11/23 04:23:25;;;;;;;5.40;1.80;;;;;;;5.98;89.45;99240.93;105514;1294;58922;-79
2022/11/23 04:25:51;;;;;;;3.20;1.60;;;;;;;5.93;89.46;99238.53;105460;1300;59117;-79
2022/11/23 04:28:18;;;;;;;4.40;1.60;;;;;;;5.88;89.63;99243.54;105519;1296;59041;-79
2022/11/23 04:30:44;;;;;;;3.20;1.40;;;;;;;5.82;89.66;99246.36;105636;1290;59050;-79
2022/11/23 04:33:16;;;;;;;6.00;1.70;;;;;;;5.77;89.81;99247.83;105605;1287;59043;-79
2022/11/23 04:35:42;;;;;;;5.60;1.70;;;;;;;5.70;89.98;99246.80;105535;1295;69650;-79
2022/11/23 04:38:09;;;;;;;5.80;1.80;;;;;;;5.63;89.91;99247.30;105536;1287;72494;-79
2022/11/23 04:40:35;;;;;;;7.30;2.40;;;;;;;5.56;89.99;99247.59;105494;1297;60027;-79
2022/11/23 04:43:03;;;;;;;6.10;2.20;;;;;;;5.48;90.08;99247.30;105605;1295;60143;-79
2022/11/23 04:45:29;;;;;;;6.00;2.20;;;;;;;5.42;90.08;99252.05;105435;1296;73162;-79
2022/11/23 04:47:56;;;;;;;4.30;2.00;;;;;;;5.37;90.03;99254.73;105510;1284;59003;-79
2022/11/23 04:50:22;;;;;;;4.90;1.90;;;;;;;5.32;90.21;99255.81;105600;1298;59020;-79
2022/11/23 04:52:48;;;;;;;6.50;1.90;;;;;;;5.27;90.22;99254.43;105549;1293;59335;-79
2022/11/23 04:55:15;;;;;;;4.80;1.70;;;;;;;5.22;90.49;99258.15;105554;1293;59055;-79
2022/11/23 04:57:41;;;;;;;5.10;2.30;;;;;;;5.16;90.47;99254.98;105589;1288;59055;-79
2022/11/23 05:00:08;;;;;;;4.90;2.20;;;;;;;5.13;90.44;99254.66;105603;1295;59010;-79
2022/11/23 05:02:38;;;;;;;5.10;2.00;;;;;;;5.09;90.49;99255.39;105515;1293;71440;-79
2022/11/23 05:05:04;;;;;;;6.30;2.00;;;;;;;5.06;90.64;99255.60;105520;1294;59672;-79
2022/11/23 05:07:31;;;;;;;6.10;2.30;;;;;;;5.02;90.47;99254.31;105670;1291;59062;-79
2022/11/23 05:09:57;;;;;;;5.20;2.10;;;;;;;4.97;90.40;99258.38;105610;1293;59470;-79
2022/11/23 05:12:24;;;;;;;6.10;2.00;;;;;;;4.93;90.60;99260.94;105650;1290;58992;-79
2022/11/23 05:14:50;;;;;;;6.00;2.30;;;;;;;4.88;90.63;99262.15;105615;1291;59293;-79
2022/11/23 05:17:17;;;;;;;6.30;2.30;;;;;;;4.84;90.86;99263.27;105688;1290;58942;-79
2022/11/23 05:19:44;;;;;;;8.40;2.80;;;;;;;4.81;90.98;99263.48;105584;1295;58963;-79
2022/11/23 05:22:10;;;;;;;5.90;2.20;;;;;;;4.78;91.13;99265.59;105553;1293;73117;-79
2022/11/23 05:24:37;;;;;;;4.50;1.90;;;;;;;4.76;91.10;99269.19;105628;1291;59133;-79
2022/11/23 05:27:03;;;;;;;4.70;2.00;;;;;;;4.72;91.22;99267.13;105568;1295;59376;-79
2022/11/23 05:29:30;;;;;;;4.90;1.90;;;;;;;4.70;91.78;99270.82;105591;1294;59804;-79
2022/11/23 05:31:56;;;;;;;6.00;1.90;;;;;;;4.68;91.84;99272.70;105673;1294;58283;-79
2022/11/23 05:34:23;;;;;;;8.00;2.60;;;;;;;4.67;92.09;99278.59;105516;1294;59669;-79
2022/11/23 05:36:49;;;;;;;5.30;2.00;;;;;;;4.67;92.14;99279.60;105644;1291;59413;-79
2022/11/23 05:39:19;;;;;;;5.80;2.10;;;;;;;4.68;92.21;99277.96;105595;1294;72803;-79
2022/11/23 05:41:45;;;;;;;6.00;2.40;;;;;;;4.67;92.45;99280.66;105649;1288;60929;-79
2022/11/23 05:44:14;;;;;;;6.50;2.40;;;;;;;4.66;92.80;99280.73;105567;1293;58994;-79
2022/11/23 05:46:41;;;;;;;9.50;3.50;;;;;;;4.66;92.88;99277.41;105651;1291;74240;-79
2022/11/23 05:49:08;;;;;;;7.30;3.40;;;;;;;4.67;92.99;99279.39;105594;1301;58983;-80
2022/11/23 05:51:35;;;;;;;8.00;2.90;;;;;;;4.68;93.44;99276.12;105532;1295;72924;-79
2022/11/23 05:54:02;;;;;;;9.70;3.40;;;;;;;4.71;93.47;99279.33;105515;1293;59311;-79
2022/11/23 05:56:28;;;;;;;6.90;3.90;;;;;;;4.75;93.44;99281.37;105482;1294;59115;-79
2022/11/23 05:58:55;;;;;;;8.50;3.90;;;;;;;4.78;93.27;99279.98;105562;1293;59060;-79
2022/11/23 06:01:21;;;;;;;7.30;3.50;;;;;;;4.78;93.14;99276.96;105636;1294;68815;-79
2022/11/23 06:03:49;;;;;;;7.40;2.90;;;;;;;4.78;93.10;99281.14;105549;1287;59134;-79
2022/11/23 06:06:21;;;;;;;7.80;2.60;;;;;;;4.78;93.18;99282.94;105540;1295;59127;-80
2022/11/23 06:08:47;;;;;;;7.30;2.90;;;;;;;4.79;93.60;99282.64;105612;1294;59070;-80
2022/11/23 06:11:15;;;;;;;6.60;2.70;;;;;;;4.80;93.69;99285.02;105477;1298;73445;-80
2022/11/23 06:13:42;;;;;;;4.50;2.10;;;;;;;4.79;93.63;99283.48;105596;1293;70581;-80
2022/11/23 06:16:08;;;;;;;6.10;2.30;;;;;;;4.78;93.65;99287.98;105576;1291;70212;-79
2022/11/23 06:18:35;;;;;;;7.00;2.70;;;;;;;4.76;93.48;99290.46;105548;1295;59588;-79
2022/11/23 06:21:01;;;;;;;7.00;2.60;;;;;;;4.76;93.52;99288.96;105574;1295;60216;-79
2022/11/23 06:23:27;;;;;;;8.10;2.50;;;;;;;4.76;93.60;99291.19;105605;1293;59080;-79
2022/11/23 06:25:54;;;;;;;7.80;2.30;;;;;;;4.77;93.52;99290.98;105651;1289;59299;-79
2022/11/23 06:28:22;;;;;;;6.50;2.30;;;;;;;4.76;93.90;99292.41;105479;1302;73654;-80
2022/11/23 06:30:48;;;;;;;7.20;2.90;;;;;;;4.78;94.42;99298.70;105321;1293;375330;-79
2022/11/23 06:33:15;;;;;;;10.30;3.90;;;;;;;4.80;94.39;99296.33;105539;1292;59273;-79
2022/11/23 06:35:44;;;;;;;10.40;5.00;;;;;;;4.83;94.61;99298.08;105555;1294;59321;-79
2022/11/23 06:38:11;;;;;;;11.20;4.30;;;;;;;4.89;94.84;99302.19;105598;1294;69606;-79
2022/11/23 06:40:37;;;;;;;10.00;4.30;;;;;;;4.97;95.41;99303.23;105599;1300;73164;-80
2022/11/23 06:43:04;;;;;;;9.60;4.10;;;;;;;5.04;95.43;99302.95;105558;1287;59119;-80
2022/11/23 06:45:30;;;;;;;9.10;3.60;;;;;;;5.12;95.35;99301.85;105557;1295;59049;-80
2022/11/23 06:47:56;;;;;;;6.60;3.80;;;;;;;5.22;95.24;99310.93;105691;1287;59132;-80
2022/11/23 06:50:23;;;;;;;6.20;2.20;;;;;;;5.31;94.85;99315.02;105699;1290;59273;-80
2022/11/23 06:52:55;;;;;;;8.80;2.50;;;;;;;5.39;94.58;99308.69;105696;1298;73630;-80
2022/11/23 06:55:23;;;;;;;6.10;2.50;;;;;;;5.42;93.84;99310.36;105532;1293;58953;-80
2022/11/23 06:57:50;;;;;;;6.20;2.60;;;;;;;5.44;93.66;99310.48;105573;1294;58796;-80
2022/11/23 07:00:18;;;;;;;7.40;2.60;;;;;;;5.45;93.22;99314.55;105539;1284;74420;-76
2022/11/23 07:02:52;;;;;;;7.30;2.70;;;;;;;5.45;92.81;99315.27;105543;1292;70094;-75
2022/11/23 07:05:19;;;;;;;6.60;2.50;;;;;;;5.44;92.66;99317.23;105547;1294;72534;-74
2022/11/23 07:07:45;;;;;;;7.90;2.80;;;;;;;5.43;92.67;99319.92;105502;1295;61028;-74
2022/11/23 07:10:12;;;;;;;6.60;2.70;;;;;;;5.42;92.51;99323.52;105355;1297;59329;-74
2022/11/23 07:12:40;;;;;;;5.60;2.50;;;;;;;5.41;92.46;99325.56;105430;1294;73836;-74
2022/11/23 07:15:07;;;;;;;5.40;2.20;;;;;;;5.41;92.37;99324.91;105521;1295;70930;-74
2022/11/23 07:17:39;;;;;;;5.80;2.20;;;;;;;5.39;92.10;99327.01;105474;1293;73583;-74
2022/11/23 07:20:10;;;;;;;5.60;2.40;;;;;;;5.37;91.68;99333.81;105507;1290;59649;-74
2022/11/23 07:22:38;;;;;;;6.90;2.20;;;;;;;5.34;91.82;99339.35;105541;1294;60120;-74
2022/11/23 07:25:05;;;;;;;6.00;2.20;;;;;;;5.33;92.11;99336.89;105528;1295;74431;-74
2022/11/23 07:27:31;;;;;;;5.80;2.20;;;;;;;5.30;91.91;99335.73;105595;1294;70326;-74
2022/11/23 07:29:58;;;;;;;6.80;2.40;;;;;;;5.27;91.84;99335.51;105557;1294;59124;-74
2022/11/23 07:32:24;;;;;;;5.40;1.90;;;;;;;5.27;91.98;99337.65;105560;1294;59248;-74
2022/11/23 07:34:51;;;;;;;4.20;2.00;;;;;;;5.27;91.90;99338.76;105505;1287;59254;-74
2022/11/23 07:37:17;;;;;;;7.00;2.40;;;;;;;5.27;91.67;99335.44;105586;1294;60023;-74
2022/11/23 07:39:43;;;;;;;7.80;2.60;;;;;;;5.25;91.66;99337.58;105650;1284;59043;-74
2022/11/23 07:42:26;;;;;;;6.80;2.60;;;;;;;5.23;91.49;99341.95;105629;1295;71253;-74
2022/11/23 07:45:11;;;;;;;7.70;3.60;;;;;;;5.21;91.34;99347.61;105563;1294;61257;-74
2022/11/23 07:47:38;;;;;;;7.10;2.90;;;;;;;5.20;91.26;99349.02;105556;1294;60132;-74
2022/11/23 07:50:09;;;;;;;9.90;3.70;;;;;;;5.17;91.23;99348.14;105613;1294;73084;-75
2022/11/23 07:52:40;;;;;;;6.50;2.80;;;;;;;5.16;91.27;99349.64;105591;1299;70519;-74
2022/11/23 07:55:07;;;;;;;7.60;2.60;;;;;;;5.19;91.40;99350.02;105571;1294;74237;-75
2022/11/23 07:57:33;;;;;;;4.70;2.20;;;;;;;5.20;91.38;99348.80;105458;1292;60341;-75
2022/11/23 07:59:59;;;;;;;7.90;2.30;;;;;;;5.24;91.33;99351.02;105625;1294;59114;-74
2022/11/23 08:02:28;;;;;;;6.90;2.70;;;;;;;5.25;91.11;99350.19;105610;1294;59108;-74
2022/11/23 08:04:55;;;;;;;7.80;2.70;;;;;;;5.23;91.08;99348.48;105631;1291;68776;-75
2022/11/23 08:07:21;;;;;;;6.40;3.00;;;;;;;5.21;91.06;99347.84;105558;1294;59049;-74
2022/11/23 08:09:48;;;;;;;7.10;3.00;;;;;;;5.19;91.23;99351.39;105639;1294;60252;-75
2022/11/23 08:12:14;;;;;;;8.20;3.50;;;;;;;5.19;91.20;99355.56;105600;1285;58872;-75
2022/11/23 08:14:41;;;;;;;8.00;3.40;;;;;;;5.22;91.50;99354.55;105455;1295;58906;-74
2022/11/23 08:17:07;;;;;;;8.10;3.40;;;;;;;5.29;91.83;99356.88;105615;1295;59423;-75
2022/11/23 08:19:34;;;;;;;7.10;3.00;;;;;;;5.40;92.03;99359.20;105556;1296;59190;-74
2022/11/23 08:22:00;;;;;;;9.00;3.60;;;;;;;5.50;92.07;99361.36;105685;1292;59091;-75
2022/11/23 08:24:27;;;;;;;8.10;3.40;;;;;;;5.61;92.03;99361.17;105528;1294;59363;-75
2022/11/23 08:26:53;;;;;;;7.20;2.60;;;;;;;5.72;92.36;99364.08;105573;1294;60180;-74
2022/11/23 08:29:20;;;;;;;6.20;2.70;;;;;;;5.86;92.15;99364.86;105609;1294;59352;-74
2022/11/23 08:31:48;;;;;;;7.00;2.20;;;;;;;6.00;92.29;99365.88;105639;1294;72451;-74
2022/11/23 08:34:14;;;;;;;8.00;2.90;;;;;;;6.13;92.00;99363.58;105583;1293;58987;-74
2022/11/23 08:36:41;;;;;;;5.90;2.80;;;;;;;6.27;91.89;99363.80;105672;1286;58691;-74
2022/11/23 08:39:09;;;;;;;6.40;2.90;;;;;;;6.41;92.12;99365.95;105621;1290;58824;-74
2022/11/23 08:41:37;;;;;;;8.60;2.80;;;;;;;6.56;92.02;99365.86;105630;1286;69939;-75
2022/11/23 08:44:04;;;;;;;7.20;2.60;;;;;;;6.70;91.73;99365.26;105578;1294;72689;-75
2022/11/23 08:46:33;;;;;;;7.20;2.30;;;;;;;6.81;91.06;99363.94;105535;1294;59389;-75
2022/11/23 08:48:59;;;;;;;4.90;2.00;;;;;;;6.93;90.96;99366.55;105569;1287;59039;-75
2022/11/23 08:51:28;;;;;;;5.90;1.50;;;;;;;7.03;90.44;99364.78;105667;1290;58881;-74
2022/11/23 08:53:55;;;;;;;4.90;1.80;;;;;;;7.16;90.18;99357.91;105449;1290;69405;-74
2022/11/23 08:56:24;;;;;;;4.10;1.40;;;;;;;7.30;89.81;99359.52;105496;1288;59129;-74
2022/11/23 08:58:50;;;;;;;8.60;1.80;;;;;;;7.45;89.10;99359.40;105599;1285;59647;-74
2022/11/23 09:01:17;;;;;;;5.80;1.70;;;;;;;7.58;88.50;99364.98;105676;1288;59339;-74
2022/11/23 09:03:44;;;;;;;4.90;1.70;;;;;;;7.70;87.76;99365.94;105556;1293;73358;-75
2022/11/23 09:06:13;;;;;;;4.90;1.60;;;;;;;7.82;87.07;99367.19;105575;1294;69271;-75
2022/11/23 09:08:39;;;;;;;5.60;1.60;;;;;;;7.93;86.66;99369.30;105694;1293;71453;-74
2022/11/23 09:11:10;;;;;;;6.20;1.60;;;;;;;8.04;86.11;99372.81;105651;1294;59348;-75
2022/11/23 09:13:38;;;;;;;3.70;1.30;;;;;;;8.15;85.28;99373.42;105546;1281;60319;-75
2022/11/23 09:16:06;;;;;;;3.80;1.40;;;;;;;8.26;85.22;99374.32;105556;1294;72772;-75
2022/11/23 09:18:34;;;;;;;4.30;1.40;;;;;;;8.36;84.53;99376.45;105475;1290;71211;-74
2022/11/23 09:21:03;;;;;;;6.90;1.70;;;;;;;8.46;84.75;99375.71;105526;1297;72452;-75
2022/11/23 09:23:30;;;;;;;5.00;1.60;;;;;;;8.57;83.87;99372.85;105583;1293;59624;-75
2022/11/23 09:25:58;;;;;;;4.90;1.70;;;;;;;8.65;83.39;99373.74;105579;1297;58989;-75
2022/11/23 09:28:26;;;;;;;4.10;1.50;;;;;;;8.71;83.10;99382.61;105694;1291;72118;-75
2022/11/23 09:30:54;;;;;;;5.50;1.70;;;;;;;8.76;82.77;99381.41;105566;1294;70586;-74
2022/11/23 09:33:22;;;;;;;4.70;1.50;;;;;;;8.84;82.77;99383.50;105422;1295;72753;-74
2022/11/23 09:35:56;;;;;;;4.90;1.60;;;;;;;8.92;82.32;99385.44;105543;1287;59423;-74
2022/11/23 09:38:23;;;;;;;6.60;1.70;;;;;;;8.97;81.95;99385.26;105689;1290;61690;-74
2022/11/23 09:41:16;;;;;;;7.00;1.80;;;;;;;9.04;81.66;99377.08;105605;1295;74576;-74
2022/11/23 09:43:58;;;;;;;5.90;1.60;;;;;;;9.10;81.60;99382.83;105666;1294;69555;-74
2022/11/23 09:46:30;;;;;;;3.90;1.40;;;;;;;9.14;81.23;99385.78;105600;1278;71103;-74
2022/11/23 09:49:13;;;;;;;3.80;1.20;;;;;;;9.14;80.25;99383.30;105601;1287;59964;-74
2022/11/23 09:51:41;;;;;;;3.90;1.20;;;;;;;9.17;80.57;99384.33;105621;1286;60297;-75
2022/11/23 09:54:32;;;;;;;4.40;1.30;;;;;;;9.21;80.34;99382.66;105497;1294;73263;-74
2022/11/23 09:57:03;;;;;;;3.00;1.30;;;;;;;9.22;79.79;99385.07;105605;1287;70166;-75
2022/11/23 09:59:29;;;;;;;4.60;1.30;;;;;;;9.22;79.19;99385.61;105440;1290;73510;-76
2022/11/23 10:01:57;;;;;;;5.50;1.80;;;;;;;9.21;78.98;99385.77;105599;1293;59086;-74
2022/11/23 10:04:32;;;;;;;4.50;1.40;;;;;;;9.24;79.42;99385.61;105478;1294;59002;-75
2022/11/23 10:07:22;;;;;;;4.00;1.30;;;;;;;9.27;79.31;99387.41;105450;1295;74725;-75
2022/11/23 10:10:08;;;;;;;5.50;1.80;;;;;;;9.31;78.79;99387.87;105605;1293;70384;-75
2022/11/23 10:12:51;;;;;;;3.40;1.30;;;;;;;9.34;78.66;99389.16;105596;1293;70877;-75
2022/11/23 10:15:25;;;;;;;6.60;1.40;;;;;;;9.38;78.81;99390.05;105589;1293;59756;-75
2022/11/23 10:18:04;;;;;;;4.20;1.30;;;;;;;9.44;78.61;99387.56;105486;1294;60616;-75
2022/11/23 10:20:45;;;;;;;5.00;1.40;;;;;;;9.57;79.04;99390.06;105598;1290;73695;-75
2022/11/23 10:23:39;;;;;;;3.70;1.30;;;;;;;9.75;78.37;99386.67;105649;1287;70393;-75
2022/11/23 10:26:19;;;;;;;6.20;1.80;;;;;;;9.89;77.97;99388.02;105530;1287;72153;-75
2022/11/23 10:28:46;;;;;;;4.70;1.50;;;;;;;10.04;77.62;99393.71;105511;1288;61797;-75
2022/11/23 10:31:22;;;;;;;4.80;1.60;;;;;;;10.15;77.27;99393.25;105455;1290;59322;-76
2022/11/23 10:34:01;;;;;;;5.20;1.20;;;;;;;10.26;76.59;99391.84;105530;1286;75561;-75
2022/11/23 10:36:27;;;;;;;3.90;1.40;;;;;;;10.34;75.89;99387.74;105615;1287;69640;-73
2022/11/23 10:38:58;;;;;;;5.70;1.60;;;;;;;10.43;75.69;99385.31;105576;1288;73071;-73
2022/11/23 10:41:25;;;;;;;5.10;1.40;;;;;;;10.55;75.81;99387.59;105589;1293;61904;-73
2022/11/23 10:44:03;;;;;;;3.80;1.40;;;;;;;10.68;75.85;99389.61;105582;1294;60178;-73
2022/11/23 10:46:36;;;;;;;4.80;1.60;;;;;;;10.82;75.63;99392.83;105524;1294;73204;-73
2022/11/23 10:49:13;;;;;;;6.10;1.70;;;;;;;10.90;74.41;99393.83;105654;1291;71251;-74
2022/11/23 10:51:47;;;;;;;6.50;1.50;;;;;;;10.96;73.99;99395.27;105548;1288;71006;-74
2022/11/23 10:54:21;;;;;;;4.00;1.40;;;;;;;10.97;73.38;99396.05;105434;1293;60914;-74
2022/11/23 10:56:50;;;;;;;4.40;1.30;;;;;;;10.96;73.50;99396.05;105411;1297;59252;-74
2022/11/23 10:59:37;;;;;;;3.10;1.30;;;;;;;10.96;73.18;99393.93;105477;1290;73948;-74
2022/11/23 11:02:03;;;;;;;3.10;1.20;;;;;;;10.93;73.07;99399.00;105513;1295;71039;-74
2022/11/23 11:04:30;;;;;;;4.90;1.30;;;;;;;10.92;72.62;99402.13;105495;1294;58970;-75
2022/11/23 11:07:15;;;;;;;3.30;1.20;;;;;;;10.86;72.39;99404.48;105521;1280;60452;-75
2022/11/23 11:09:55;;;;;;;4.10;1.20;;;;;;;10.84;72.61;99400.09;105555;1291;60276;-75
2022/11/23 11:12:22;;;;;;;4.70;1.20;;;;;;;10.84;72.77;99400.77;105549;1294;74273;-75
2022/11/23 11:15:13;;;;;;;5.10;1.50;;;;;;;10.90;73.07;99396.85;105662;1295;71032;-75
2022/11/23 11:17:40;;;;;;;4.30;1.20;;;;;;;11.02;72.47;99396.08;105563;1294;71134;-75
2022/11/23 11:20:43;;;;;;;4.90;1.40;;;;;;;11.02;71.84;99397.02;105557;1295;62035;-75
2022/11/23 11:23:20;;;;;;;4.50;1.40;;;;;;;10.97;71.97;99396.58;105369;1294;61027;-75
2022/11/23 11:25:48;;;;;;;4.00;1.50;;;;;;;10.93;72.30;99397.13;105519;1294;74406;-74
2022/11/23 11:28:39;;;;;;;4.10;1.10;;;;;;;10.94;72.80;99395.73;105619;1290;70230;-74
2022/11/23 11:31:22;;;;;;;3.30;0.90;;;;;;;10.90;72.17;99392.61;105572;1294;71312;-74
2022/11/23 11:34:21;;;;;;;4.80;1.20;;;;;;;10.86;71.76;99390.90;105615;1285;60825;-74
2022/11/23 11:36:59;;;;;;;3.80;1.20;;;;;;;10.86;72.04;99390.13;105589;1293;59248;-74
2022/11/23 11:39:34;;;;;;;4.40;1.20;;;;;;;10.83;71.93;99392.13;105538;1287;74454;-74
2022/11/23 11:42:07;;;;;;;5.50;1.50;;;;;;;10.85;72.46;99390.66;105573;1294;69675;-74
2022/11/23 11:44:41;;;;;;;3.20;1.10;;;;;;;10.87;72.64;99388.58;105555;1293;71225;-74